SAME/MDZ METAR and TAF weather

Enter ICAO airport designator
Station Type Date Time Source
SAME METAR 2019/12/13 17:00 UTC NOAA

SAME 131700Z 09009KT CAVOK 29/M00 Q1008


Station Type Date Time Source
SAME Decoded METAR 2019/12/13 17:00 UTC NOAA

Mendoza Aerodrome, Argentina (SAME) 32-50S 068-47W 704M
Dec 13, 2019 - 12:00 PM EST / 2019.12.13 1700 UTC
Wind: from the E (090 degrees) at 10 MPH (9 KT):0
Visibility: greater than 7 mile(s):0
Temperature: 84 F (29 C)
Dew Point: 32 F (0 C)
Relative Humidity: 15%
Pressure (altimeter): 29.77 in. Hg (1008 hPa)
ob: SAME 131700Z 09009KT CAVOK 29/M00 Q1008
cycle: 17

Station Type Date Time Source
SAME TAF 2019/12/13 18:03 UTC NOAA

TAF TAF SAME 131700Z 1318/1418 05010KT 9999 FEW040 TX33/1320Z TN19/1410Z

Example: see airport list